Flight Track Log - Related Links

Times and Time Zones

All times are in EDT time to prevent confusion due to time zone crossing. See the AAL1071 flight status page for this flight to view local times or setup timezone preferences in your user account.

Time Position Orientation Groundspeed Altitude Reporting Facility
EDT Latitude Longitude Course Direction KTS MPH feet Rate Location/Type
Sun 09:46:34 AM 25.7990 -80.2760 61° Northeast  Level FlightAware ADS-B
Sun 09:48:19 AM 25.7990 -80.2750 90° East 10 12 25 Level FlightAware ADS-B
Sun 09:49:02 AM 25.8000 -80.2760 318° Northwest 29 33 29 Level FlightAware ADS-B
Sun 09:49:29 AM 25.8020 -80.2780 318° Northwest 29 33 31 Level FlightAware ADS-B
Sun 09:49:42 AM 25.8010 -80.2790 222° Southwest 16 18 32 Level FlightAware ADS-B
Sun 09:50:19 AM 25.8000 -80.2820 250° West 16 18 33 Level FlightAware ADS-B
Sun 09:50:48 AM 25.8000 -80.2840 270° West 16 18 36 Level FlightAware ADS-B
Sun 09:52:07 AM 25.8000 -80.2900 270° West 15 17 38 Level FlightAware ADS-B
Sun 09:52:32 AM 25.8000 -80.2920 270° West 15 17 45 Level FlightAware ADS-B
Sun 09:53:01 AM 25.8000 -80.2940 270° West 30 35 49 Level FlightAware ADS-B
Sun 09:53:27 AM 25.8000 -80.2960 270° West 30 35 53 Level FlightAware ADS-B
Sun 09:53:57 AM 25.8000 -80.2970 270° West 24 28 57 Level FlightAware ADS-B
Sun 09:54:39 AM 25.8000 -80.2990 270° West 18 21 63 Level FlightAware ADS-B
Sun 09:55:58 AM 25.8000 -80.3000 270° West 74 Level FlightAware ADS-B
Sun 09:56:46 AM 25.8000 -80.3010 270° West 32 37 109 Level FlightAware ADS-B
Sun 09:56:57 AM 25.8010 -80.3010 360° North 19 22 154 Level FlightAware ADS-B
Sun 09:58:15 AM 25.8010 -80.2930 90° East 110 127 170 Level FlightAware ADS-B
Sun 09:58:43 AM 25.8020 -80.2690 87° East 177 204 300 1,500 Climbing FlightAware ADS-B
Sun 09:58:59 AM 25.8040 -80.2540 82° East 174 200 1,100 2,267 Climbing FlightAware ADS-B
Sun 09:59:28 AM 25.8090 -80.2280 78° East 190 219 2,000 1,474 Climbing FlightAware ADS-B
Sun 09:59:56 AM 25.8130 -80.1990 81° East 228 262 2,500 1,269 Climbing FlightAware ADS-B
Sun 10:00:20 AM 25.8170 -80.1660 82° East 263 303 3,100 1,857 Climbing FlightAware ADS-B
Sun 10:00:38 AM 25.8200 -80.1410 82° East 272 313 3,800 2,372 Climbing FlightAware ADS-B
Sun 10:01:03 AM 25.8240 -80.1060 83° East 284 327 4,800 2,870 Climbing FlightAware ADS-B
Sun 10:01:47 AM 25.8220 -80.0430 92° East 278 320 7,100 3,043 Climbing FlightAware ADS-B
Sun 10:02:12 AM 25.8110 -80.0100 110° East 280 322 8,300 2,609 Climbing FlightAware ADS-B
Sun 10:02:33 AM 25.8010 -79.9820 112° Southeast 287 330 9,100 2,215 Climbing FlightAware ADS-B
Sun 10:03:17 AM 25.7800 -79.9210 111° Southeast 306 352 10,700 1,586 Climbing FlightAware ADS-B
Sun 10:04:00 AM 25.7560 -79.8510 111° Southeast 356 410 11,400 1,500 Climbing FlightAware ADS-B
Sun 10:04:33 AM 25.7360 -79.7930 111° Southeast 370 426 12,600 2,548 Climbing FlightAware ADS-B
Sun 10:05:13 AM 25.7110 -79.7220 111° Southeast 372 428 14,500 2,833 Climbing FlightAware ADS-B
Sun 10:05:45 AM 25.6900 -79.6650 112° Southeast 375 432 16,000 2,451 Climbing FlightAware ADS-B
Sun 10:06:24 AM 25.6650 -79.5920 111° Southeast 386 444 17,400 2,096 Climbing FlightAware ADS-B
Sun 10:07:08 AM 25.6370 -79.5100 111° Southeast 399 459 18,900 2,045 Climbing FlightAware ADS-B
Sun 10:07:52 AM 25.6070 -79.4240 111° Southeast 410 472 20,400 2,096 Climbing FlightAware ADS-B
Sun 10:08:31 AM 25.5800 -79.3490 112° Southeast 413 475 21,800 1,870 Climbing FlightAware ADS-B
Sun 10:09:09 AM 25.5540 -79.2710 110° East 425 489 22,800 1,558 Climbing FlightAware ADS-B
Sun 10:09:48 AM 25.5330 -79.1880 106° East 439 505 23,800 1,463 Climbing FlightAware ADS-B
Sun 10:10:31 AM 25.4960 -79.1000 115° Southeast 448 516 24,800 1,255 Climbing FlightAware ADS-B
Sun 10:11:38 AM 25.4440 -78.9890 117° Southeast 459 528 26,100 1,122 Climbing FlightAware ADS-B
Sun 10:12:34 AM 25.3800 -78.8510 117° Southeast 466 536 27,100 517 Climbing FlightAware ADS-B
Sun 10:13:34 AM 25.3300 -78.7420 117° Southeast 466 536 27,100  Level FlightAware ADS-B
Sun 10:14:11 AM 25.2990 -78.6750 117° Southeast 466 536 27,100  Level FlightAware ADS-B
Sun 10:14:59 AM 25.2590 -78.5890 117° Southeast 466 536 27,100  Level FlightAware ADS-B
Sun 10:15:35 AM 25.2290 -78.5240 117° Southeast 466 536 27,100 4,388 Level FlightAware ADS-B
Sun 10:16:06 AM 25.1694 -78.4111 117° Southeast 476 548 32,000 4,154 Climbing Miami Center
Sun 10:17:06 AM 25.1039 -78.2794 119° Southeast 481 554 33,400 1,350 Climbing Miami Center
Sun 10:18:06 AM 25.0444 -78.1503 117° Southeast 476 548 34,700 1,300 Climbing Miami Center
Sun 10:19:06 AM 24.9828 -78.0211 118° Southeast 476 548 36,000 1,100 Climbing Miami Center
Sun 10:20:06 AM 24.9208 -77.8947 118° Southeast 476 548 36,900 500 Climbing Miami Center
Sun 10:21:06 AM 24.8592 -77.7681 118° Southeast 471 542 37,000 50 Climbing Miami Center
Sun 10:22:06 AM 24.7972 -77.6417 118° Southeast 471 542 37,000  Level Miami Center
Sun 10:23:06 AM 24.7331 -77.5108 118° Southeast 471 542 37,000  Level Miami Center
Sun 10:24:06 AM 24.6728 -77.3803 117° Southeast 477 549 37,000  Level Miami Center
Sun 10:25:06 AM 24.6106 -77.2519 118° Southeast 477 549 37,000  Level Miami Center
Sun 10:26:06 AM 24.5481 -77.1239 118° Southeast 477 549 37,000  Level Miami Center
Sun 10:27:06 AM 24.4878 -76.9958 117° Southeast 477 549 37,000  Level Miami Center
Sun 10:28:06 AM 24.4272 -76.8725 118° Southeast 472 543 37,000  Level Miami Center
Sun 10:29:06 AM 24.3644 -76.7469 119° Southeast 472 543 37,000  Level Miami Center
Sun 10:30:06 AM 24.3014 -76.6194 118° Southeast 472 543 37,000  Level Miami Center
Sun 10:31:06 AM 24.2428 -76.4964 118° Southeast 467 537 37,000  Level Miami Center
Sun 10:32:06 AM 24.1797 -76.3692 118° Southeast 467 537 37,000  Level Miami Center
Sun 10:33:06 AM 24.1144 -76.2419 119° Southeast 467 537 37,000  Level Miami Center
Sun 10:34:06 AM 24.0511 -76.1147 119° Southeast 472 543 37,000  Level Miami Center
Sun 10:35:06 AM 23.9897 -75.9878 118° Southeast 472 543 37,000  Level Miami Center
Sun 10:36:06 AM 23.9264 -75.8586 118° Southeast 478 550 37,000  Level Miami Center
Sun 10:37:06 AM 23.8606 -75.7319 120° Southeast 483 556 37,000  Level Miami Center
Sun 10:38:06 AM 23.7906 -75.5894 118° Southeast 483 556 37,000  Level Miami Center
Sun 10:39:06 AM 23.7244 -75.4608 119° Southeast 483 556 37,000  Level Miami Center
Sun 10:40:06 AM 23.6586 -75.3344 120° Southeast 483 556 37,000  Level Miami Center
Sun 10:41:06 AM 23.5944 -75.2061 119° Southeast 483 556 37,000  Level Miami Center
Sun 10:42:06 AM 23.5303 -75.0800 119° Southeast 478 550 37,000  Level Miami Center
Sun 10:43:06 AM 23.4642 -74.9539 120° Southeast 478 550 37,000  Level Miami Center
Sun 10:44:06 AM 23.3975 -74.8261 120° Southeast 478 550 37,000  Level Miami Center
Sun 10:45:06 AM 23.3372 -74.7003 118° Southeast 478 550 37,000  Level Miami Center
Sun 10:46:06 AM 23.2686 -74.5747 121° Southeast 478 550 37,000  Level Miami Center
Sun 10:47:06 AM 23.2039 -74.4472 119° Southeast 478 550 37,000  Level Miami Center
Sun 10:48:06 AM 23.1392 -74.3194 119° Southeast 478 550 37,000  Level Miami Center
Sun 10:49:06 AM 23.0744 -74.1967 120° Southeast 478 550 37,000  Level Miami Center
Sun 10:50:06 AM 23.0072 -74.0672 119° Southeast 478 550 37,000  Level Miami Center
Sun 10:51:06 AM 22.9358 -73.9403 121° Southeast 484 557 37,000  Level Miami Center
Sun 10:52:06 AM 22.8728 -73.8108 118° Southeast 484 557 37,000  Level Miami Center
Sun 10:53:06 AM 22.8033 -73.6842 121° Southeast 484 557 37,000  Level Miami Center
Sun 10:54:06 AM 22.7508 -73.5819 119° Southeast 479 551 37,000  Level Miami Center
Sun 10:55:06 AM 22.6769 -73.4442 120° Southeast 479 551 37,000  Level Miami Center
Sun 10:56:06 AM 22.6092 -73.3156 120° Southeast 479 551 37,000  Level Miami Center
Sun 10:57:06 AM 22.5414 -73.1892 120° Southeast 479 551 37,000  Level Miami Center
Sun 10:58:06 AM 22.4819 -73.0628 117° Southeast 479 551 37,000  Level Miami Center
Sun 10:59:06 AM 22.4142 -72.9392 121° Southeast 472 543 37,000  Level Miami Center
Sun 11:00:06 AM 22.3483 -72.8153 120° Southeast 478 550 37,000  Level Miami Center
Sun 11:01:06 AM 22.2800 -72.6894 120° Southeast 478 550 37,000  Level Miami Center
Sun 11:02:06 AM 22.2117 -72.5617 120° Southeast 483 556 37,000  Level Miami Center
Sun 11:03:06 AM 22.1478 -72.4383 119° Southeast 478 550 37,000  Level Miami Center
Sun 11:04:06 AM 22.0792 -72.3108 120° Southeast 478 550 37,000  Level Miami Center
Sun 11:05:06 AM 22.0108 -72.1856 120° Southeast 478 550 37,000  Level Miami Center
Sun 11:06:06 AM 21.9442 -72.0581 119° Southeast 483 556 37,000  Level Miami Center
Sun 11:07:06 AM 21.8736 -71.9378 122° Southeast 478 550 37,000  Level Miami Center
Sun 11:08:06 AM 21.8092 -71.8150 119° Southeast 478 550 37,000  Level Miami Center
Sun 11:09:06 AM 21.7444 -71.6947 120° Southeast 478 550 37,000  Level Miami Center
Sun 11:10:06 AM 21.6778 -71.5722 120° Southeast 478 550 37,000  Level Miami Center
Sun 11:11:06 AM 21.6108 -71.4500 120° Southeast 478 550 37,000  Level Miami Center
Sun 11:12:06 AM 21.5439 -71.3278 120° Southeast 478 550 37,000  Level Miami Center
Sun 11:13:06 AM 21.4789 -71.2056 120° Southeast 478 550 37,000  Level Miami Center
Sun 11:14:06 AM 21.4117 -71.0814 120° Southeast 478 550 37,000  Level Miami Center
Sun 11:15:06 AM 21.2833 -70.9936 147° Southeast 446 513 37,000  Level Miami Center
Sun 11:16:06 AM 21.1792 -70.8892 137° Southeast 474 545 37,000  Level Miami Center
Sun 11:17:06 AM 21.0772 -70.7869 137° Southeast 487 560 37,000  Level Miami Center
Sun 11:18:06 AM 20.9797 -70.6917 138° Southeast 487 560 37,000  Level Miami Center
Sun 11:19:06 AM 20.8819 -70.5939 137° Southeast 487 560 37,000  Level Miami Center
Sun 11:20:06 AM 20.7822 -70.4989 138° Southeast 487 560 37,000 -1,172 Level Miami Center
Sun 11:26:16 AM 20.1490 -69.8760 138° Southeast 488 562 28,600 -1,401 Descending FlightAware ADS-B
Sun 11:26:57 AM 20.0810 -69.8100 138° Southeast 490 564 27,400 -1,737 Descending FlightAware ADS-B
Sun 11:27:32 AM 20.0230 -69.7540 138° Southeast 495 570 26,400 -690 Descending FlightAware ADS-B
Sun 11:28:24 AM 19.9490 -69.6800 137° Southeast 495 570 26,400 -1,333 Level FlightAware ADS-B
Sun 11:29:02 AM 19.8800 -69.6090 136° Southeast 439 505 24,400 -2,000 Descending FlightAware ADS-B
Sun 11:29:48 AM 19.8160 -69.5420 135° Southeast 408 470 23,600 -876 Descending FlightAware ADS-B
Sun 11:31:19 AM 19.7170 -69.4400 136° Southeast 364 419 22,400 -1,164 Descending FlightAware ADS-B
Sun 11:32:02 AM 19.6440 -69.3780 141° Southeast 355 409 21,000 -1,735 Descending FlightAware ADS-B
Sun 11:32:42 AM 19.5910 -69.3370 144° Southeast 349 402 20,000 -1,403 Descending FlightAware ADS-B
Sun 11:33:19 AM 19.5470 -69.3030 144° Southeast 345 397 19,200 -1,443 Descending FlightAware ADS-B
Sun 11:34:01 AM 19.4900 -69.2580 143° Southeast 342 394 18,100 -1,500 Descending FlightAware ADS-B
Sun 11:34:43 AM 19.4370 -69.2170 144° Southeast 338 389 17,100 -1,463 Descending FlightAware ADS-B
Sun 11:35:23 AM 19.3860 -69.1780 144° Southeast 330 380 16,100 -1,537 Descending FlightAware ADS-B
Sun 11:36:05 AM 19.3350 -69.1380 143° Southeast 323 372 15,000 -1,535 Descending FlightAware ADS-B
Sun 11:36:49 AM 19.2860 -69.0940 140° Southeast 315 362 13,900 -1,357 Descending FlightAware ADS-B
Sun 11:37:29 AM 19.2440 -69.0520 137° Southeast 302 348 13,100 -1,171 Descending FlightAware ADS-B
Sun 11:38:11 AM 19.2030 -69.0110 137° Southeast 291 335 12,300 -1,125 Descending FlightAware ADS-B
Sun 11:38:49 AM 19.1600 -68.9810 147° Southeast 287 330 11,600 -1,077 Descending FlightAware ADS-B
Sun 11:39:29 AM 19.1160 -68.9480 145° Southeast 287 330 10,900 -1,125 Descending FlightAware ADS-B
Sun 11:40:09 AM 19.0740 -68.9170 145° Southeast 280 322 10,100 -1,268 Descending FlightAware ADS-B
Sun 11:40:40 AM 19.0400 -68.8920 145° Southeast 276 318 9,400 -1,424 Descending FlightAware ADS-B
Sun 11:41:08 AM 19.0110 -68.8710 146° Southeast 272 313 8,700 -1,368 Descending FlightAware ADS-B
Sun 11:41:37 AM 18.9810 -68.8490 145° Southeast 271 312 8,100 -1,222 Descending FlightAware ADS-B
Sun 11:42:02 AM 18.9550 -68.8300 145° Southeast 267 307 7,600 -1,286 Descending FlightAware ADS-B
Sun 11:42:33 AM 18.9250 -68.8080 145° Southeast 266 306 6,900 -1,395 Descending FlightAware ADS-B
Sun 11:42:45 AM 18.9130 -68.8000 148° Southeast 266 306 6,600 -1,385 Descending FlightAware ADS-B
Sun 11:43:12 AM 18.8840 -68.7790 146° Southeast 261 300 6,000 -1,333 Descending FlightAware ADS-B
Sun 11:43:30 AM 18.8670 -68.7660 144° Southeast 253 291 5,600 -1,256 Descending FlightAware ADS-B
Sun 11:43:55 AM 18.8440 -68.7490 145° Southeast 246 283 5,100 -824 Descending FlightAware ADS-B
Sun 11:44:21 AM 18.8190 -68.7310 146° Southeast 242 278 4,900 -261 Descending FlightAware ADS-B
Sun 11:44:41 AM 18.8010 -68.7180 146° Southeast 243 280 4,900  Level FlightAware ADS-B
Sun 11:44:55 AM 18.7880 -68.7090 147° Southeast 244 281 4,900  Level FlightAware ADS-B
Sun 11:46:19 AM 18.7300 -68.6660 145° Southeast 237 273 4,900  Level FlightAware ADS-B
Sun 11:46:44 AM 18.7010 -68.6460 147° Southeast 209 241 4,900 -321 Level FlightAware ADS-B
Sun 11:47:15 AM 18.6690 -68.6220 145° Southeast 208 239 4,600 -712 Descending FlightAware ADS-B
Sun 11:47:43 AM 18.6470 -68.6070 147° Southeast 204 235 4,200 -955 Descending FlightAware ADS-B
Sun 11:47:59 AM 18.6350 -68.5970 142° Southeast 204 235 3,900 -811 Descending FlightAware ADS-B
Sun 11:48:20 AM 18.6190 -68.5860 147° Southeast 206 237 3,700 -333 Descending FlightAware ADS-B
Sun 11:48:35 AM 18.6050 -68.5770 149° Southeast 209 241 3,700  Level FlightAware ADS-B
Sun 11:49:03 AM 18.5800 -68.5680 161° South 211 243 3,700 -107 Level FlightAware ADS-B
Sun 11:49:31 AM 18.5530 -68.5600 164° South 214 246 3,600 -643 Descending FlightAware ADS-B
Sun 11:49:59 AM 18.5310 -68.5440 145° Southeast 204 235 3,100 -973 Descending FlightAware ADS-B
Sun 11:50:08 AM 18.5300 -68.5370 99° East 201 231 3,000 -1,024 Descending FlightAware ADS-B
Sun 11:50:40 AM 18.5370 -68.5060 77° East 197 227 2,400 -1,053 Descending FlightAware ADS-B
Sun 11:51:05 AM 18.5430 -68.4840 74° East 179 206 2,000 -1,034 Descending FlightAware ADS-B
Sun 11:51:38 AM 18.5500 -68.4580 74° East 151 174 1,400 -931 Descending FlightAware ADS-B
Sun 11:52:03 AM 18.5550 -68.4410 73° East 147 169 1,100 -714 Descending FlightAware ADS-B
Sun 11:52:20 AM 18.5580 -68.4310 72° East 148 170 900 -750 Descending FlightAware ADS-B
Sun 11:52:43 AM 18.5620 -68.4140 76° East 145 167 600 -824 Descending FlightAware ADS-B
Sun 11:53:11 AM 18.5670 -68.3940 75° East 146 168 200 -857 Descending FlightAware ADS-B
Sun 11:53:36 AM 18.5720 -68.3770 73° East 143 165 -480 Descending FlightAware ADS-B
Sun 11:54:01 AM 18.5750 -68.3650 75° East 65 75  Level FlightAware ADS-B

Login

Don't have an account? Register now (free) for customized features, flight alerts, and more!